默认 日期 大小 文件数 浏览量 最新下载 xml
♀100磁力链接相关资源由用户搜索指令自动获取,结果来源于网络,本站不存储任何资料,亦不承担任何责任,请于24小时内删除,搜索到112459个磁力,显示前4000条数据,用时10ms。
    {"Power ISO 9.11 + Serial Keys 100% Working.exe": 23893708}
创建时间: 2018-11-04 23:25:08 大小:22.79 MB 文件数量:1 热度:15 最近下载:2025-06-01 16:19:02
    {"DVD1GO-03.jpg": 148367, "GO-03.XviD.avi": 1007104068, "DVD1GO-03-A.jpg": 1493992, "��������.txt": 1501}
创建时间: 2018-11-04 23:26:57 大小:962.02 MB 文件数量:4 热度:57 最近下载:2025-08-24 21:46:01
    ... -trbl-kush_in_my_face_(bass_massive_dj_mix_edit).mp3": 8950712, "100-carbon_based_lifeforms-endospore_(psychill_mix).mp3": 12517993 ...
创建时间: 2018-11-04 23:27:19 大小:1.39 GB 文件数量:104 热度:18 最近下载:2025-02-06 10:40:05
    {"100_Percent_Pure_Amateur_Teens_15_Scene_1.mp4": 138706150, "100_Percent_Pure_Amateur_Teens_15_Scene_2.mp4": 238412021, "100_Percent_Pure_Amateur_Teens_15_Scene_3.mp4": 151031154, "100_Percent_Pure_Amateur_Teens_15_Scene_4.mp4": 150058237, " ...
创建时间: 2018-11-04 23:27:32 大小:739.17 MB 文件数量:5 热度:12 最近下载:2025-09-02 00:27:03
    ... .100.s05e01.mkv": 417429018, "pfa-the.100.s05e02.mkv": 249609492, "pfa-the.100 ... .s05e03.mkv": 336445927, "pfa-the.100 ... .s05e04.mkv": 318442407, "pfa-the.100 ...
创建时间: 2018-11-04 23:28:31 大小:3.68 GB 文件数量:13 热度:10 最近下载:2024-07-02 21:55:03
    ... .jpg": 43054, "Readme.txt": 202, "100 Summer Hits Of The Sixties ...
创建时间: 2018-11-04 23:31:17 大小:652.51 MB 文件数量:103 热度:13 最近下载:2024-07-02 21:07:02
    ... .x264-CHiNJiTSU.mp4": 3602686802}, "UFC.100.Lesnar.vs.Mir.720p.BDRip ... .x264-KYR": {"UFC.100.Lesnar.vs.Mir.720p.BDRip ...
创建时间: 2018-11-04 23:32:27 大小:223.86 GB 文件数量:100 热度:24 最近下载:2025-08-10 06:55:01
    ... ガチ選手権 100人500分BEST.mp4 ...
创建时间: 2018-11-04 23:35:44 大小:9.03 GB 文件数量:27 热度:274 最近下载:2025-10-14 13:22:04
    ... (Dub Tribe Mix).mp3": 12326694, "100 Robno - Devin R.I.P ... , "001 Dubstep Spook - Dubstep Deluxe 100 Top Hits 2015 (1 Hr ...
创建时间: 2018-11-04 23:36:41 大小:1.31 GB 文件数量:101 热度:20 最近下载:2023-04-08 16:00:23
    {"superunitedkingdom - readme.txt": 7618, "Sexy Cosplay Girls - superunitedkingdom (201).jpg": 40307, "Sexy Cosplay Girls - superunitedkingdom (202).jpg": 104951, "Sexy Cosplay Girls - superunitedkingdom (203).jpg": 43324, "Sexy Cosplay Girls - ...
创建时间: 2018-11-04 23:38:23 大小:19.9 MB 文件数量:102 热度:20 最近下载:2024-05-01 10:08:01
    ... .jpg": 276589, "99.jpg": 242047, "100.jpg": 264580, "101.jpg": 194559 ...
创建时间: 2018-11-04 23:38:26 大小:62.76 MB 文件数量:172 热度:18 最近下载:2025-08-13 18:46:01
    {"RARBG.txt": 30, "Fast.N.Loud.S14E03.Shining.Up.a.59.F-100.HDTV.x264-CRiMSON.mkv": 452510808, "fast.n.loud.s14e03.shining.up.a.59.f-100.hdtv.x264-crimson.nfo": 806}
创建时间: 2018-11-04 23:41:51 大小:431.55 MB 文件数量:3 热度:15 最近下载:2024-11-07 10:44:01
    ... Guantanamero.mp3": 3105665, "1966-100 Wilson Pickett - 634-5789.mp3 ... Fire.mp3": 4176103, "1979-100 Firefall - Strange Way.mp3": ... Fergalicious.mp3": 6303744, "Billboard Top 100 Hits Of 2007 - 017 - ... ..mp3": 6354944, "Billboard Top 100 Hits Of 2007 - 031 - ...
创建时间: 2018-11-04 23:43:11 大小:23.42 GB 文件数量:5562 热度:16 最近下载:2025-01-20 18:49:05
    ... .mp3": 7363487, "Новинки Русского Шансона 100 Песен.jpg": 97055, "48. Александр ... на семи ветрах.mp3": 6963082, "100. Вячеслав Кожевников - Не остановиться.mp3 ...
创建时间: 2018-11-04 23:45:29 大小:727.04 MB 文件数量:101 热度:8 最近下载:2023-04-08 16:10:03
    {"001.wmv": 157646281, "002.wmv": 157470281, "003.wmv": 155742239, "004.wmv": 156766269, "005.wmv": 156910257, "006.wmv": 155390227, "007.wmv": 157574281, "008.wmv": 157598281, "009.wmv": 157174269, "010.wmv": 156406245, "011.wmv": 152886233, "cover.jpg": ...
创建时间: 2018-11-04 23:48:27 大小:1.6 GB 文件数量:12 热度:32 最近下载:2025-10-08 00:33:02
    ... "front.jpg": 10823178, "(08) [100% Hits] Shadows - Hello.mp3": ... Mucho.mp3": 6853747, "(16) [100% Hits] Antonio Ventura - Hotel ... .mp3": 9625870, "(12) [100% Hits] Fausto Papetti - Windmilles ... .mp3": 9146269, "(20) [100% Hits] Brancaster Studio Orchestra - ...
创建时间: 2018-11-04 23:51:20 大小:185.48 MB 文件数量:24 热度:8 最近下载:2023-04-08 16:20:06
    {"Come Join Us.txt": 40, "Counting Down Southern Rock - The 100 Best Songs (2016).epub": 1465582}
创建时间: 2018-11-04 23:51:48 大小:1.4 MB 文件数量:2 热度:16 最近下载:2024-09-06 02:36:02
    ... ": 86, "all.together.now-the.100.s01e02.web.h264-shadows.mkv ... ": 686842762, "all.together.now-the.100.s01e02.web.h264-shadows.nfo ...
创建时间: 2018-11-04 23:52:42 大小:656.97 MB 文件数量:7 热度:12 最近下载:2024-12-22 06:44:01
    {"Torrent Downloaded From ArenaBG.ch.txt": 292, "the.100.s05e13.web.x264-tbs[ArenaBG].mkv": 386504008}
创建时间: 2018-11-04 23:53:42 大小:368.6 MB 文件数量:2 热度:15 最近下载:2023-04-08 16:20:03
    {"Lucky 7.webloc": 0, "100 Deadliest Karate Moves.pdf": 2446776}
创建时间: 2018-11-04 23:54:26 大小:2.33 MB 文件数量:2 热度:21 最近下载:2025-04-27 00:03:01